Terminal Aerodrome Forecast
Issued by NWS Raleigh/Durham, NC

Current Version | Previous Version | Text Only | Print | Product List | Glossary On
Versions: 1 2 3 4 5 6 7 8 9 10 11 12 13 14 15 16 17 18 19 20 21 22 23 24 25 26 27 28 29 30 31 32 33 34 35 36 37 38 39 40 41 42 43 44 45 46 47 48 49 50
000 FTUS42 KRAH 232320 TAFGSO TAF KGSO 232320Z 2400/2424 02012G20KT 6SM BR BKN009 BKN015 TEMPO 2400/2404 36010KT 3SM -RA BR BKN015 OVC025 FM240600 32009KT P6SM BKN025 TEMPO 2407/2411 3SM BR OVC010 FM241500 32013G20KT P6SM SCT035=

USA.gov is the U.S. government's official web portal to all federal, state and local government web resources and services.